Time;durP1;ratioP1;P1;durP2;ratioP2;P2;SDS_P1;SDS_P2;PMS_P1;PMS_P2;Temp;Humidity;BMP_temperature;BMP_pressure;BME280_temperature;BME280_humidity;BME280_pressure;Samples;Min_cycle;Max_cycle;Signal;HPM_P1;HPM_P2
2021/03/21 00:00:00;;;;;;;0.70;0.70;;;;;;;2.36;100.00;98730.25;5049655;28;20086;-89
2021/03/21 00:02:26;;;;;;;3.13;1.65;;;;;;;2.74;100.00;98788.91;5033012;28;20029;-90
2021/03/21 00:04:51;;;;;;;1.45;1.45;;;;;;;2.87;100.00;98801.03;5069278;28;20025;-88
2021/03/21 00:07:17;;;;;;;1.67;1.58;;;;;;;2.97;100.00;98827.59;5052614;28;20021;-89
2021/03/21 00:09:42;;;;;;;0.93;0.93;;;;;;;3.02;100.00;98824.50;5052847;28;20115;-88
2021/03/21 00:12:09;;;;;;;0.40;0.40;;;;;;;2.99;100.00;98817.09;5069248;28;20033;-88
2021/03/21 00:14:34;;;;;;;0.30;0.30;;;;;;;2.83;100.00;98794.81;5051952;28;20118;-88
2021/03/21 00:17:00;;;;;;;3.85;2.40;;;;;;;2.99;100.00;98797.97;5052128;28;20500;-88
2021/03/21 00:19:26;;;;;;;2.20;0.88;;;;;;;3.06;100.00;98798.03;5052264;28;20040;-87
2021/03/21 00:21:52;;;;;;;3.70;2.67;;;;;;;2.75;100.00;98733.19;5051816;28;20059;-87
2021/03/21 00:24:17;;;;;;;1.10;1.10;;;;;;;3.15;100.00;98806.63;5052354;28;20033;-87
2021/03/21 00:26:43;;;;;;;6.10;3.03;;;;;;;2.99;100.00;98800.72;5052219;28;20037;-86
2021/03/21 00:29:09;;;;;;;1.42;1.33;;;;;;;3.06;100.00;98776.19;5051906;28;20126;-87
2021/03/21 00:31:35;;;;;;;1.33;0.95;;;;;;;3.24;100.00;98807.06;5052100;28;20033;-88
2021/03/21 00:34:01;;;;;;;1.15;1.15;;;;;;;3.12;100.00;98812.06;5052060;28;20025;-88
2021/03/21 00:36:26;;;;;;;1.45;1.35;;;;;;;2.98;100.00;98812.78;5052703;28;20119;-87
2021/03/21 00:38:54;;;;;;;0.95;0.95;;;;;;;2.56;100.00;98747.09;5052088;28;20040;-87
2021/03/21 00:41:23;;;;;;;0.53;0.53;;;;;;;2.96;100.00;98806.94;5068759;28;20064;-89
2021/03/21 00:43:50;;;;;;;0.65;0.40;;;;;;;2.35;100.00;98718.56;5052577;28;20032;-88
2021/03/21 00:46:16;;;;;;;1.03;0.97;;;;;;;2.38;100.00;98720.53;5069421;28;20560;-90
2021/03/21 00:48:43;;;;;;;1.13;1.05;;;;;;;2.65;100.00;98767.41;5068982;28;20270;-89
2021/03/21 00:51:10;;;;;;;0.85;0.85;;;;;;;2.75;100.00;98776.81;5052098;28;20037;-90
2021/03/21 00:53:36;;;;;;;2.97;2.72;;;;;;;2.41;100.00;98724.44;5052120;28;20029;-88
2021/03/21 00:56:03;;;;;;;0.22;0.22;;;;;;;2.59;100.00;98773.63;5052060;28;20059;-90
2021/03/21 00:58:28;;;;;;;0.85;0.85;;;;;;;2.45;100.00;98744.31;5052570;28;20530;-90
2021/03/21 01:00:57;;;;;;;0.40;0.40;;;;;;;2.30;100.00;98748.91;5051915;28;20029;-90
2021/03/21 01:03:23;;;;;;;0.40;0.40;;;;;;;2.09;100.00;98688.03;5051683;28;20021;-90
2021/03/21 01:05:54;;;;;;;1.67;1.67;;;;;;;2.61;100.00;98777.53;5051784;28;20075;-90
2021/03/21 01:08:28;;;;;;;0.55;0.55;;;;;;;2.44;100.00;98772.75;5052213;28;20116;-90
2021/03/21 01:11:04;;;;;;;4.20;1.80;;;;;;;2.14;100.00;98726.63;5051770;28;20041;-90
2021/03/21 01:13:30;;;;;;;0.90;0.90;;;;;;;2.45;100.00;98777.84;5068533;28;20036;-87
2021/03/21 01:15:56;;;;;;;2.17;0.85;;;;;;;2.34;100.00;98768.81;5051616;28;20031;-89
2021/03/21 01:18:29;;;;;;;1.30;1.30;;;;;;;2.45;100.00;98798.84;5051697;28;20025;-89
2021/03/21 01:20:54;;;;;;;1.52;1.52;;;;;;;1.94;100.00;98726.06;5068340;28;20493;-89
2021/03/21 01:23:20;;;;;;;0.40;0.40;;;;;;;2.52;100.00;98817.22;5049400;28;20021;-88
2021/03/21 01:25:46;;;;;;;0.50;0.50;;;;;;;2.42;100.00;98810.50;5031793;28;20477;-89
2021/03/21 01:28:24;;;;;;;0.30;0.30;;;;;;;2.44;100.00;98832.75;5034563;28;20108;-88
2021/03/21 01:30:51;;;;;;;1.17;1.13;;;;;;;2.19;100.00;98775.31;5035542;28;20397;-88
2021/03/21 01:33:17;;;;;;;0.90;0.90;;;;;;;2.08;100.00;98771.72;5036283;28;20527;-89
2021/03/21 01:35:42;;;;;;;0.85;0.85;;;;;;;2.29;100.00;98765.66;5052131;28;20120;-89
2021/03/21 01:38:08;;;;;;;1.42;1.27;;;;;;;2.32;100.00;98794.88;5052004;28;20551;-89
2021/03/21 01:40:36;;;;;;;0.90;0.90;;;;;;;2.30;100.00;98795.25;5035430;28;20026;-89
2021/03/21 01:43:02;;;;;;;2.03;1.10;;;;;;;2.13;100.00;98757.75;5035307;28;20033;-87
2021/03/21 01:45:36;;;;;;;0.93;0.93;;;;;;;1.83;100.00;98727.16;5035433;28;20033;-88
2021/03/21 01:48:25;;;;;;;0.60;0.60;;;;;;;2.14;100.00;98783.84;5035298;28;20033;-88
2021/03/21 01:51:05;;;;;;;1.83;1.73;;;;;;;1.89;100.00;98755.63;5035575;28;20025;-89
2021/03/21 01:53:33;;;;;;;0.30;0.30;;;;;;;1.79;100.00;98742.69;5035649;28;20033;-88
2021/03/21 01:56:00;;;;;;;1.45;0.68;;;;;;;1.80;100.00;98738.81;5035147;28;20025;-89
2021/03/21 01:58:29;;;;;;;0.20;0.20;;;;;;;1.86;100.00;98742.75;5051882;28;20545;-89
2021/03/21 02:01:00;;;;;;;0.80;0.80;;;;;;;2.02;100.00;98779.47;5035332;28;20037;-90
2021/03/21 02:03:26;;;;;;;0.82;0.80;;;;;;;2.24;100.00;98812.31;5052653;28;20094;-90
2021/03/21 02:06:02;;;;;;;0.60;0.60;;;;;;;2.32;100.00;98816.69;5051314;28;20040;-90
2021/03/21 02:09:18;;;;;;;0.63;0.63;;;;;;;2.30;100.00;98786.28;5035491;28;20040;-89
2021/03/21 02:12:09;;;;;;;0.52;0.52;;;;;;;2.31;100.00;98818.63;5017812;28;20553;-89
2021/03/21 02:14:41;;;;;;;1.27;1.27;;;;;;;1.11;100.00;98614.19;5035464;28;20056;-90
2021/03/21 02:17:21;;;;;;;0.73;0.73;;;;;;;1.92;100.00;98772.00;5035115;28;20029;-92
2021/03/21 02:20:06;;;;;;;1.25;1.15;;;;;;;1.77;100.00;98725.94;5051261;28;20029;-89
2021/03/21 02:22:57;;;;;;;0.20;0.20;;;;;;;1.96;100.00;98736.59;5034506;28;20025;-89
2021/03/21 02:25:48;;;;;;;0.35;0.35;;;;;;;2.30;100.00;98800.69;5035285;28;20037;-89
2021/03/21 02:28:44;;;;;;;0.47;0.47;;;;;;;2.26;100.00;98821.69;5035207;28;20027;-92
2021/03/21 02:31:40;;;;;;;0.30;0.30;;;;;;;2.27;100.00;98826.00;5058404;28;20029;-88
2021/03/21 02:34:30;;;;;;;0.40;0.40;;;;;;;1.36;100.00;98665.31;5070049;28;20041;-87
2021/03/21 02:37:08;;;;;;;0.75;0.75;;;;;;;2.17;100.00;98810.31;5054292;28;20035;-86
2021/03/21 02:39:41;;;;;;;0.30;0.30;;;;;;;1.99;100.00;98779.44;5053365;28;20036;-87
2021/03/21 02:42:14;;;;;;;0.30;0.30;;;;;;;2.13;100.00;98779.56;5054556;28;20112;-87
2021/03/21 02:44:49;;;;;;;0.50;0.50;;;;;;;2.21;100.00;98819.34;5054800;28;20028;-87
2021/03/21 02:47:25;;;;;;;0.35;0.35;;;;;;;2.09;100.00;98791.59;5054182;28;20029;-88
2021/03/21 02:49:54;;;;;;;3.03;2.78;;;;;;;1.76;100.00;98762.50;5053813;28;20064;-87
2021/03/21 02:52:22;;;;;;;1.25;1.08;;;;;;;1.67;100.00;98746.50;5054085;28;20048;-89
2021/03/21 02:55:15;;;;;;;0.38;0.38;;;;;;;2.12;100.00;98809.91;5054038;28;20029;-90
2021/03/21 02:57:50;;;;;;;0.73;0.73;;;;;;;1.23;100.00;98679.22;5065263;28;20060;-86
2021/03/21 03:00:21;;;;;;;0.82;0.82;;;;;;;2.03;100.00;98794.66;5048965;28;20033;-86
2021/03/21 03:02:52;;;;;;;0.20;0.20;;;;;;;2.26;100.00;98818.19;5033960;28;20025;-87
2021/03/21 03:05:38;;;;;;;0.40;0.40;;;;;;;2.20;100.00;98827.88;5034465;28;20048;-88
2021/03/21 03:08:08;;;;;;;0.28;0.28;;;;;;;2.28;100.00;98803.03;5033995;28;20029;-86
2021/03/21 03:10:50;;;;;;;0.40;0.40;;;;;;;2.02;100.00;98775.97;5033774;28;20029;-90
2021/03/21 03:13:27;;;;;;;1.75;1.65;;;;;;;1.50;100.00;98726.13;5034367;28;20030;-89
2021/03/21 03:16:00;;;;;;;0.30;0.30;;;;;;;1.53;100.00;98724.56;5034418;28;20473;-89
2021/03/21 03:18:38;;;;;;;1.30;0.60;;;;;;;1.79;100.00;98797.19;5033521;28;20037;-90
2021/03/21 03:21:11;;;;;;;0.55;0.55;;;;;;;1.58;100.00;98811.38;5033748;28;20424;-90
2021/03/21 03:23:45;;;;;;;1.27;1.17;;;;;;;0.93;100.00;98738.34;5033490;28;20083;-90
2021/03/21 03:26:26;;;;;;;0.50;0.50;;;;;;;1.16;100.00;98795.34;5033949;28;20030;-90
2021/03/21 03:29:13;;;;;;;0.68;0.68;;;;;;;1.27;100.00;98803.66;5033463;28;20025;-89
2021/03/21 03:31:59;;;;;;;0.20;0.20;;;;;;;1.34;100.00;98815.38;5033297;28;20022;-90
2021/03/21 03:34:27;;;;;;;0.20;0.20;;;;;;;1.39;100.00;98806.88;5033467;28;20144;-90
2021/03/21 03:36:53;;;;;;;0.75;0.75;;;;;;;1.01;100.00;98710.09;5032995;28;20060;-90
2021/03/21 03:39:19;;;;;;;0.20;0.20;;;;;;;1.51;100.00;98797.66;5033214;28;20030;-90
2021/03/21 03:42:11;;;;;;;0.75;0.55;;;;;;;1.62;100.00;98793.13;5033160;28;20025;-90
2021/03/21 03:44:45;;;;;;;0.30;0.30;;;;;;;1.22;100.00;98736.72;5033271;28;20029;-90
2021/03/21 03:47:33;;;;;;;0.68;0.68;;;;;;;1.32;100.00;98774.16;5033395;28;20037;-92
2021/03/21 03:50:09;;;;;;;;;;;;;;;1.66;100.00;98817.66;5034001;28;20083;-89
2021/03/21 03:52:55;;;;;;;0.45;0.45;;;;;;;1.43;100.00;98802.28;5033239;28;20347;-92
2021/03/21 03:55:29;;;;;;;0.30;0.30;;;;;;;1.05;100.00;98803.41;5033055;28;20033;-94
2021/03/21 03:58:03;;;;;;;1.25;1.25;;;;;;;0.88;100.00;98744.13;5032810;28;20030;-90
2021/03/21 04:00:38;;;;;;;0.88;0.88;;;;;;;1.07;100.00;98803.81;5033106;28;20100;-90
2021/03/21 04:03:36;;;;;;;1.15;1.15;;;;;;;1.16;100.00;98826.06;5033227;28;20381;-91
2021/03/21 04:06:08;;;;;;;1.42;1.33;;;;;;;0.63;100.00;98743.81;5020826;28;20034;-89
2021/03/21 04:08:39;;;;;;;1.10;1.10;;;;;;;0.86;100.00;98791.88;5033218;28;20057;-89
2021/03/21 04:11:19;;;;;;;0.30;0.30;;;;;;;1.32;100.00;98868.66;5032733;28;20574;-89
2021/03/21 04:13:53;;;;;;;0.38;0.38;;;;;;;1.10;100.00;98840.38;5032335;28;20053;-89
2021/03/21 04:16:55;;;;;;;0.30;0.30;;;;;;;1.19;100.00;98835.44;5032589;28;20026;-87
2021/03/21 04:19:25;;;;;;;0.60;0.60;;;;;;;1.14;100.00;98844.72;4983208;28;20589;-88
2021/03/21 04:22:10;;;;;;;0.32;0.32;;;;;;;1.29;100.00;98864.72;5032477;28;20057;-90
2021/03/21 04:24:52;;;;;;;1.15;1.15;;;;;;;1.06;100.00;98823.22;5033069;28;20026;-90
2021/03/21 04:27:25;;;;;;;0.40;0.40;;;;;;;1.20;100.00;98853.34;5032957;28;20041;-90
2021/03/21 04:29:59;;;;;;;0.88;0.88;;;;;;;0.91;100.00;98795.06;5032929;28;20029;-90
2021/03/21 04:32:39;;;;;;;1.08;0.98;;;;;;;0.45;100.00;98731.94;5032450;28;20025;-89
2021/03/21 04:35:12;;;;;;;1.50;1.42;;;;;;;1.12;100.00;98843.50;5032943;28;20033;-89
2021/03/21 04:37:40;;;;;;;0.60;0.60;;;;;;;0.64;100.00;98780.75;5033143;28;20053;-89
2021/03/21 04:40:08;;;;;;;0.50;0.50;;;;;;;1.16;100.00;98845.13;5032082;28;20183;-90
2021/03/21 04:43:05;;;;;;;0.85;0.85;;;;;;;1.22;100.00;98842.84;5032157;28;20052;-90
2021/03/21 04:45:40;;;;;;;;;;;;;;;1.27;100.00;98839.03;5027047;28;20048;-88
2021/03/21 04:48:12;;;;;;;0.65;0.65;;;;;;;0.73;100.00;98797.56;5049409;28;19909;-88
2021/03/21 04:50:38;;;;;;;0.38;0.38;;;;;;;1.22;100.00;98846.34;5032091;28;20051;-88
2021/03/21 04:53:15;;;;;;;0.80;0.80;;;;;;;0.89;100.00;98783.00;5031807;28;20021;-89
2021/03/21 04:55:45;;;;;;;0.55;0.55;;;;;;;1.23;100.00;98847.94;5032098;28;20563;-88
2021/03/21 04:58:36;;;;;;;2.58;2.47;;;;;;;1.23;100.00;98849.88;5032322;28;20033;-88
2021/03/21 05:01:10;;;;;;;0.73;0.73;;;;;;;0.62;100.00;98765.94;5032278;28;20029;-86
2021/03/21 05:03:40;;;;;;;0.90;0.90;;;;;;;0.74;100.00;98761.06;5036163;28;20025;-87
2021/03/21 05:06:27;;;;;;;0.52;0.52;;;;;;;0.45;100.00;98720.28;5036095;28;20031;-87
2021/03/21 05:09:04;;;;;;;0.40;0.40;;;;;;;1.15;100.00;98813.63;5036170;28;20032;-89
2021/03/21 05:11:49;;;;;;;1.07;1.07;;;;;;;0.73;100.00;98754.03;5036551;28;20124;-87
2021/03/21 05:14:39;;;;;;;0.50;0.50;;;;;;;1.23;100.00;98855.31;5036488;28;20267;-87
2021/03/21 05:17:22;;;;;;;0.30;0.30;;;;;;;1.32;100.00;98855.03;5035413;28;20065;-87
2021/03/21 05:20:04;;;;;;;0.73;0.73;;;;;;;0.64;100.00;98772.59;5036085;28;20049;-86
2021/03/21 05:22:33;;;;;;;0.28;0.28;;;;;;;0.76;100.00;98796.03;5035691;28;20060;-87
2021/03/21 05:25:05;;;;;;;1.10;1.02;;;;;;;1.26;100.00;98849.16;5035709;28;20029;-89
2021/03/21 05:27:42;;;;;;;2.33;2.15;;;;;;;1.46;100.00;98863.34;5050258;28;20092;-90
2021/03/21 05:30:11;;;;;;;0.82;0.82;;;;;;;1.42;100.00;98881.59;5055667;28;20033;-89
2021/03/21 05:32:37;;;;;;;0.63;0.63;;;;;;;1.18;100.00;98823.78;5056147;28;20119;-91
2021/03/21 05:35:05;;;;;;;0.30;0.30;;;;;;;1.44;100.00;98855.56;5055759;28;20074;-87
2021/03/21 05:37:52;;;;;;;0.75;0.75;;;;;;;1.41;100.00;98850.06;5055419;28;20431;-88
2021/03/21 05:40:52;;;;;;;0.65;0.65;;;;;;;0.97;100.00;98774.53;5055868;28;20123;-89
2021/03/21 05:43:42;;;;;;;0.90;0.90;;;;;;;1.48;100.00;98845.50;5055586;28;20107;-90
2021/03/21 05:46:25;;;;;;;0.38;0.38;;;;;;;1.01;100.00;98771.88;5055377;28;20119;-91
2021/03/21 05:49:06;;;;;;;0.30;0.30;;;;;;;0.77;100.00;98722.25;5055334;28;20031;-91
2021/03/21 05:51:43;;;;;;;1.15;1.15;;;;;;;1.15;100.00;98769.28;5056030;28;20036;-88
2021/03/21 05:54:31;;;;;;;0.35;0.35;;;;;;;1.49;100.00;98847.06;5055180;28;20025;-88
2021/03/21 05:57:33;;;;;;;0.75;0.75;;;;;;;1.49;100.00;98841.63;5041679;28;20026;-93
2021/03/21 05:59:59;;;;;;;5.10;4.85;;;;;;;0.71;100.00;98715.59;5035247;28;20516;-91
2021/03/21 06:02:39;;;;;;;9.07;4.57;;;;;;;1.14;100.00;98784.09;5035068;28;20029;-91
2021/03/21 06:05:42;;;;;;;1.65;1.55;;;;;;;1.57;100.00;98851.41;5035624;28;20029;-90
2021/03/21 06:08:31;;;;;;;0.40;0.40;;;;;;;1.67;100.00;98854.63;5035569;28;20036;-93
2021/03/21 06:11:24;;;;;;;0.38;0.38;;;;;;;1.79;100.00;98878.88;5031743;28;20098;-89
2021/03/21 06:13:56;;;;;;;1.05;1.05;;;;;;;1.32;100.00;98808.78;5034888;28;20087;-88
2021/03/21 06:16:21;;;;;;;0.57;0.57;;;;;;;0.49;100.00;98711.03;5054426;28;20500;-87
2021/03/21 06:19:26;;;;;;;0.50;0.50;;;;;;;1.87;100.00;98875.09;5054148;28;20039;-90
2021/03/21 06:21:59;;;;;;;3.30;1.50;;;;;;;1.83;100.00;98866.88;5031131;28;20064;-88
2021/03/21 06:24:50;;;;;;;4.38;0.98;;;;;;;1.86;100.00;98862.63;5043108;28;20025;-88
2021/03/21 06:27:25;;;;;;;3.13;1.15;;;;;;;1.74;100.00;98832.94;5034690;28;20124;-88
2021/03/21 06:29:54;;;;;;;0.20;0.20;;;;;;;1.98;100.00;98865.88;5034263;28;20029;-88
2021/03/21 06:32:38;;;;;;;0.20;0.20;;;;;;;1.91;100.00;98865.78;5043375;28;20025;-87
2021/03/21 06:35:23;;;;;;;0.35;0.35;;;;;;;1.50;100.00;98796.13;5039776;28;20024;-87
2021/03/21 06:38:27;;;;;;;0.20;0.20;;;;;;;1.84;100.00;98870.38;5055176;28;20071;-89
2021/03/21 06:41:23;;;;;;;1.38;1.27;;;;;;;1.97;100.00;98867.00;5038285;28;20100;-89
2021/03/21 06:44:03;;;;;;;0.22;0.22;;;;;;;2.08;100.00;98867.09;5050589;28;20026;-89
2021/03/21 06:46:31;;;;;;;0.30;0.30;;;;;;;2.07;100.00;98873.72;5050899;28;20124;-88
2021/03/21 06:49:30;;;;;;;1.00;1.00;;;;;;;2.07;100.00;98884.63;5050493;28;20037;-89
2021/03/21 06:52:07;;;;;;;0.40;0.40;;;;;;;2.05;100.00;98856.94;5033869;28;20031;-88
2021/03/21 06:54:51;;;;;;;0.85;0.85;;;;;;;2.21;100.00;98933.81;5034056;28;20056;-89
2021/03/21 06:57:52;;;;;;;0.63;0.63;;;;;;;2.38;100.00;98884.13;5070563;28;20029;-90
2021/03/21 07:00:43;;;;;;;0.90;0.90;;;;;;;2.29;100.00;98844.72;5054090;28;20033;-87
2021/03/21 07:03:27;;;;;;;0.40;0.40;;;;;;;2.46;100.00;98871.31;5069963;28;20039;-88
2021/03/21 07:06:10;;;;;;;0.50;0.50;;;;;;;1.95;100.00;98801.22;5053436;28;20032;-91
2021/03/21 07:08:54;;;;;;;0.30;0.30;;;;;;;2.61;100.00;98874.94;5054138;28;20028;-90
2021/03/21 07:11:43;;;;;;;0.40;0.40;;;;;;;2.65;100.00;98873.03;5053451;28;20033;-86
2021/03/21 07:14:48;;;;;;;0.30;0.30;;;;;;;2.24;100.00;98823.22;5064471;28;20029;-87
2021/03/21 07:17:41;;;;;;;0.35;0.35;;;;;;;2.14;100.00;98808.38;5045337;28;20041;-89
2021/03/21 07:20:34;;;;;;;1.05;1.05;;;;;;;2.60;100.00;98887.00;5053086;28;20128;-88
2021/03/21 07:23:19;;;;;;;0.30;0.30;;;;;;;2.53;100.00;98895.94;5053403;28;20421;-88
2021/03/21 07:25:47;;;;;;;0.50;0.50;;;;;;;1.94;100.00;98817.94;5069181;28;20411;-88
2021/03/21 07:29:03;;;;;;;0.35;0.35;;;;;;;1.56;100.00;98719.19;5053210;28;20051;-84
2021/03/21 07:31:37;;;;;;;0.85;0.85;;;;;;;2.37;100.00;98827.22;4994758;28;20037;-85
2021/03/21 07:34:14;;;;;;;0.20;0.20;;;;;;;2.77;100.00;98892.56;5011996;28;20032;-85
2021/03/21 07:37:18;;;;;;;0.22;0.22;;;;;;;2.79;99.62;98873.88;5033167;28;20037;-84
2021/03/21 07:40:01;;;;;;;0.30;0.30;;;;;;;3.01;99.82;98868.56;5033462;28;20026;-85
2021/03/21 07:42:50;;;;;;;1.20;1.20;;;;;;;2.75;99.50;98839.56;5049347;28;20481;-87
2021/03/21 07:45:54;;;;;;;0.95;0.95;;;;;;;2.68;99.74;98851.22;5049793;28;20037;-86
2021/03/21 07:48:38;;;;;;;0.20;0.20;;;;;;;2.43;99.16;98798.44;5020948;28;20071;-90
2021/03/21 07:51:22;;;;;;;0.65;0.65;;;;;;;2.49;99.07;98810.56;5049710;28;20033;-90
2021/03/21 07:54:00;;;;;;;0.70;0.70;;;;;;;2.79;98.43;98838.41;5052305;28;20033;-85
2021/03/21 07:56:39;;;;;;;0.30;0.30;;;;;;;2.75;97.21;98845.03;5052535;28;20090;-85
2021/03/21 07:59:09;;;;;;;0.20;0.20;;;;;;;3.02;96.94;98857.25;5052242;28;20115;-87
2021/03/21 08:01:35;;;;;;;0.20;0.20;;;;;;;3.06;97.55;98876.38;5052435;28;20503;-86
2021/03/21 08:04:04;;;;;;;0.28;0.28;;;;;;;2.54;96.95;98747.47;5052309;28;20029;-89
2021/03/21 08:06:38;;;;;;;0.52;0.52;;;;;;;2.67;96.88;98765.09;5051621;28;20029;-89
2021/03/21 08:09:13;;;;;;;0.30;0.30;;;;;;;3.33;97.05;98866.75;5052118;28;20029;-87
2021/03/21 08:11:43;;;;;;;0.40;0.40;;;;;;;3.38;95.74;98885.50;5053174;28;20037;-87
2021/03/21 08:14:26;;;;;;;0.20;0.20;;;;;;;3.33;95.97;98876.88;5051675;28;20033;-85
2021/03/21 08:16:54;;;;;;;0.40;0.40;;;;;;;3.31;95.83;98887.44;5068400;28;20029;-86
2021/03/21 08:19:22;;;;;;;;;;;;;;;3.36;95.57;98871.47;5068186;28;20028;-86
2021/03/21 08:21:48;;;;;;;0.20;0.20;;;;;;;2.47;94.88;98737.31;5050554;28;19921;-83
2021/03/21 08:24:22;;;;;;;0.20;0.20;;;;;;;2.85;95.37;98803.38;5052060;28;20032;-88
2021/03/21 08:26:51;;;;;;;0.30;0.30;;;;;;;3.04;96.66;98815.94;5052046;28;20036;-89
2021/03/21 08:29:27;;;;;;;0.30;0.30;;;;;;;3.32;96.87;98878.06;5052437;28;20094;-88
2021/03/21 08:32:09;;;;;;;1.30;1.25;;;;;;;3.22;96.60;98855.78;5052720;28;20116;-89
2021/03/21 08:34:43;;;;;;;0.20;0.20;;;;;;;2.65;97.03;98816.50;5052283;28;20499;-88
2021/03/21 08:37:16;;;;;;;0.68;0.68;;;;;;;2.90;97.82;98846.66;5048349;28;20027;-87
2021/03/21 08:39:46;;;;;;;0.20;0.20;;;;;;;3.03;97.27;98849.84;5066944;28;20029;-87
2021/03/21 08:42:28;;;;;;;0.40;0.40;;;;;;;2.88;97.71;98840.81;5052002;28;20115;-89
2021/03/21 08:45:22;;;;;;;1.35;1.20;;;;;;;2.86;98.54;98829.50;5052381;28;20406;-87
2021/03/21 08:48:05;;;;;;;0.40;0.40;;;;;;;2.86;97.70;98837.69;5036782;28;20037;-87
2021/03/21 08:50:45;;;;;;;0.73;0.73;;;;;;;2.88;98.22;98829.13;5050872;28;20429;-88
2021/03/21 08:53:39;;;;;;;0.40;0.40;;;;;;;3.01;97.81;98828.41;5042938;28;20028;-88
2021/03/21 08:56:13;;;;;;;0.20;0.20;;;;;;;2.64;98.14;98759.63;5032267;28;20033;-88
2021/03/21 08:58:39;;;;;;;0.30;0.30;;;;;;;3.21;97.30;98820.69;5048587;28;20032;-88
2021/03/21 09:01:14;;;;;;;0.40;0.40;;;;;;;3.01;97.53;98771.09;5040360;28;20033;-87
2021/03/21 09:03:41;;;;;;;5.88;0.98;;;;;;;3.40;97.25;98806.72;5057180;28;20086;-88
2021/03/21 09:06:07;;;;;;;2.58;2.38;;;;;;;3.48;95.99;98797.38;5051672;28;20040;-87
2021/03/21 09:08:34;;;;;;;1.10;1.10;;;;;;;3.08;94.93;98729.38;5051796;28;20029;-84
2021/03/21 09:11:03;;;;;;;1.70;1.60;;;;;;;3.71;94.60;98821.63;5051378;28;20469;-83
2021/03/21 09:13:32;;;;;;;1.13;1.05;;;;;;;3.50;93.51;98783.31;5051173;28;20492;-84
2021/03/21 09:15:57;;;;;;;0.30;0.30;;;;;;;3.12;93.74;98801.16;5051298;28;20025;-83
2021/03/21 09:18:34;;;;;;;0.30;0.30;;;;;;;2.87;93.91;98768.31;5051556;28;20459;-85
2021/03/21 09:21:16;;;;;;;0.40;0.40;;;;;;;2.83;96.37;98811.16;5031467;28;20076;-83
2021/03/21 09:23:58;;;;;;;0.40;0.40;;;;;;;2.66;96.34;98776.38;5066440;28;20036;-82
2021/03/21 09:26:42;;;;;;;0.90;0.90;;;;;;;3.03;96.60;98820.59;5052782;28;20524;-85
2021/03/21 09:29:28;;;;;;;0.70;0.70;;;;;;;2.57;96.35;98751.41;5051439;28;20036;-84
2021/03/21 09:31:58;;;;;;;0.30;0.30;;;;;;;2.49;96.85;98703.44;5050959;28;20273;-84
2021/03/21 09:35:01;;;;;;;0.20;0.20;;;;;;;3.20;95.80;98797.28;5051014;28;20059;-85
2021/03/21 09:37:33;;;;;;;0.73;0.73;;;;;;;3.21;96.22;98791.44;5047864;28;20033;-86
2021/03/21 09:40:34;;;;;;;0.20;0.20;;;;;;;3.30;95.60;98802.00;5031126;28;20025;-85
2021/03/21 09:42:59;;;;;;;0.20;0.20;;;;;;;2.98;95.04;98760.94;5047639;28;20030;-84
2021/03/21 09:45:25;;;;;;;0.20;0.20;;;;;;;3.21;94.47;98805.09;5031135;28;20124;-86
2021/03/21 09:47:57;;;;;;;0.20;0.20;;;;;;;2.67;96.96;98729.63;5064243;28;20039;-85
2021/03/21 09:50:29;;;;;;;0.20;0.20;;;;;;;2.90;96.16;98729.31;5048671;28;20484;-85
2021/03/21 09:53:13;;;;;;;0.60;0.60;;;;;;;3.35;95.36;98777.06;5054720;28;20037;-85
2021/03/21 09:55:51;;;;;;;0.30;0.30;;;;;;;3.39;94.64;98782.50;5047385;28;20029;-84
2021/03/21 09:58:22;;;;;;;;;;;;;;;3.30;95.02;98780.16;5054974;28;20029;-85
2021/03/21 10:00:56;;;;;;;0.20;0.20;;;;;;;3.02;95.83;98801.88;5071043;28;19916;-86
2021/03/21 10:03:33;;;;;;;1.20;1.08;;;;;;;2.95;97.07;98786.28;5054813;28;20025;-85
2021/03/21 10:06:08;;;;;;;0.43;0.43;;;;;;;2.98;97.28;98760.94;5054321;28;20039;-84
2021/03/21 10:08:59;;;;;;;0.30;0.30;;;;;;;2.98;97.63;98782.78;5052543;28;20111;-84
2021/03/21 10:11:33;;;;;;;0.22;0.22;;;;;;;3.17;96.88;98779.72;5054092;28;20477;-83
2021/03/21 10:14:02;;;;;;;0.30;0.30;;;;;;;2.54;96.69;98700.34;5053860;28;20064;-83
2021/03/21 10:16:30;;;;;;;0.52;0.52;;;;;;;3.16;96.85;98793.75;5054114;28;20021;-82
2021/03/21 10:19:05;;;;;;;0.20;0.20;;;;;;;3.16;95.86;98769.97;5053875;28;20039;-84
2021/03/21 10:21:34;;;;;;;0.40;0.40;;;;;;;3.20;96.53;98765.28;5053922;28;20420;-84
2021/03/21 10:24:00;;;;;;;0.30;0.30;;;;;;;2.93;97.88;98704.00;5070458;28;20021;-83
2021/03/21 10:26:31;;;;;;;0.25;0.25;;;;;;;3.27;97.24;98770.00;5053849;28;20025;-84
2021/03/21 10:28:59;;;;;;;0.22;0.22;;;;;;;3.09;96.54;98733.69;5053644;28;20717;-83
2021/03/21 10:31:35;;;;;;;0.30;0.30;;;;;;;3.32;96.05;98760.63;5052109;28;20120;-82
2021/03/21 10:34:03;;;;;;;0.20;0.20;;;;;;;3.00;97.75;98736.78;5034253;28;20029;-83
2021/03/21 10:36:41;;;;;;;0.20;0.20;;;;;;;2.88;98.34;98696.19;5033845;28;20481;-84
2021/03/21 10:39:24;;;;;;;0.30;0.30;;;;;;;2.72;98.60;98650.16;5050645;28;20033;-82
2021/03/21 10:42:00;;;;;;;0.20;0.20;;;;;;;3.14;98.41;98727.84;5050443;28;20033;-84
2021/03/21 10:44:32;;;;;;;0.30;0.30;;;;;;;3.22;97.39;98697.44;5050296;28;20026;-83
2021/03/21 10:47:27;;;;;;;0.28;0.28;;;;;;;3.49;97.10;98733.38;5050270;28;20029;-83
2021/03/21 10:49:54;;;;;;;0.20;0.20;;;;;;;3.11;96.56;98682.22;5047875;28;20033;-83
2021/03/21 10:52:25;;;;;;;0.55;0.55;;;;;;;3.73;95.72;98769.31;5053808;28;20044;-83
2021/03/21 10:55:13;;;;;;;0.40;0.40;;;;;;;3.71;95.46;98739.66;5053262;28;20485;-85
2021/03/21 10:57:44;;;;;;;0.68;0.68;;;;;;;3.51;95.87;98736.50;5052913;28;20029;-84
2021/03/21 11:00:21;;;;;;;0.60;0.60;;;;;;;3.45;96.57;98742.72;5052609;28;20025;-85
2021/03/21 11:03:01;;;;;;;0.75;0.68;;;;;;;3.46;96.49;98715.03;5052572;28;20041;-84
2021/03/21 11:05:32;;;;;;;0.63;0.63;;;;;;;3.64;96.62;98720.50;5052677;28;20120;-86
2021/03/21 11:08:13;;;;;;;0.68;0.68;;;;;;;3.27;94.69;98630.75;5053025;28;20033;-85
2021/03/21 11:10:49;;;;;;;0.35;0.35;;;;;;;3.75;94.00;98698.66;5053232;28;20067;-84
2021/03/21 11:13:24;;;;;;;0.50;0.50;;;;;;;3.70;94.51;98647.91;5052903;28;20122;-82
2021/03/21 11:15:51;;;;;;;0.30;0.30;;;;;;;4.22;92.81;98700.19;5046808;28;20099;-84
2021/03/21 11:18:28;;;;;;;0.73;0.70;;;;;;;4.36;92.27;98689.19;5052444;28;20044;-86
2021/03/21 11:21:23;;;;;;;0.90;0.90;;;;;;;4.38;92.30;98684.91;5053211;28;20080;-86
2021/03/21 11:23:59;;;;;;;1.02;1.02;;;;;;;4.22;90.90;98638.03;5067700;28;20041;-85
2021/03/21 11:26:25;;;;;;;0.20;0.20;;;;;;;4.79;90.49;98692.56;5053230;28;20032;-85
2021/03/21 11:29:09;;;;;;;0.55;0.55;;;;;;;4.59;90.05;98612.09;5052603;28;20416;-83
2021/03/21 11:31:48;;;;;;;1.10;1.10;;;;;;;5.43;87.28;98668.31;5052601;28;20116;-82
2021/03/21 11:34:34;;;;;;;0.43;0.40;;;;;;;5.68;86.80;98668.91;5032427;28;20075;-84
2021/03/21 11:37:19;;;;;;;0.70;0.70;;;;;;;5.24;87.18;98669.59;5032795;28;20120;-83
2021/03/21 11:39:58;;;;;;;0.77;0.77;;;;;;;5.09;86.78;98656.41;5038736;28;20049;-84
2021/03/21 11:42:35;;;;;;;1.05;1.05;;;;;;;4.62;87.29;98647.69;5034678;28;20077;-82
2021/03/21 11:45:12;;;;;;;0.68;0.68;;;;;;;4.32;88.18;98623.56;5032741;28;20036;-83
2021/03/21 11:47:46;;;;;;;0.65;0.40;;;;;;;4.35;89.13;98647.38;5049518;28;20037;-84
2021/03/21 11:50:32;;;;;;;0.90;0.90;;;;;;;4.15;89.69;98634.56;5033124;28;20034;-84
2021/03/21 11:53:00;;;;;;;0.65;0.65;;;;;;;4.62;89.37;98653.16;5049339;28;20029;-84
2021/03/21 11:55:40;;;;;;;4.75;2.72;;;;;;;4.68;88.55;98648.81;5032688;28;20156;-84
2021/03/21 11:58:22;;;;;;;2.65;2.45;;;;;;;4.79;88.76;98643.28;5049543;28;20034;-85
2021/03/21 12:01:17;;;;;;;5.20;1.88;;;;;;;4.24;88.44;98555.63;5049659;28;20037;-85
2021/03/21 12:03:51;;;;;;;1.58;1.50;;;;;;;4.67;89.01;98622.63;5033922;28;20037;-84
2021/03/21 12:06:41;;;;;;;2.17;0.93;;;;;;;4.55;90.50;98622.31;5048532;28;20038;-85
2021/03/21 12:09:36;;;;;;;0.65;0.65;;;;;;;3.79;90.53;98593.66;5050661;28;20487;-84
2021/03/21 12:12:05;;;;;;;1.38;1.27;;;;;;;4.23;91.44;98619.69;5032670;28;20037;-86
2021/03/21 12:14:30;;;;;;;0.40;0.40;;;;;;;4.16;92.56;98614.25;5032139;28;20119;-87
2021/03/21 12:16:57;;;;;;;1.15;1.15;;;;;;;3.99;93.83;98613.91;5041074;28;20124;-86
2021/03/21 12:19:38;;;;;;;4.30;1.75;;;;;;;3.65;94.22;98561.69;5052065;28;20113;-87
2021/03/21 12:22:23;;;;;;;1.35;1.27;;;;;;;3.53;95.48;98603.06;5068562;28;20208;-86